San Aurelio — A8PC9 — position and weather

sailwx.info

Track history (hours):
 
Tides and Currents Weather Stations Pressure Air Temp Water Temp Dewpoint Dewpoint Depression Visibility Wind Speed Wind Dir Waves Ship Positions

San Aurelio

Last reported at 2014-Sep-19 18:00 UTC. Time now 2014-Sep-24 02:22 UTC.
Position N 06°18' E 122°24'.

Length 186 m; draft 9.5 m.

Type: Cargo ship. MMSI: 636091534.

Wind from 120 at 8 knots

Barometer 1010.0 mb
Air temperature 28.0 ° C
Visibility: greater than 10.8 NM
Dewpoint 23.9 ° C

Date/timePositionNaut miles runAvg speedWind from/ knotsBaromVisibWave heightAir tempDewpointWater temp
2014-Sep-19 18:00N 06°18' E 122°24'110 9.1 120 / 81010.010.8 28.023.9
2014-Sep-19 06:00N 07°12' E 120°48'16013.4 200 / 141009.010.8 1.030.024.6
2014-Sep-18 18:00N 07°54' E 118°12'15512.9 250 / 81009.5 5.4 27.524.1
2014-Sep-18 06:00N 07°12' E 115°42'16814.0 030 / 81009.010.8 0.529.524.0
2014-Sep-17 18:00N 06°24' E 113°00'16413.7 030 / 191009.010.8 28.525.8
2014-Sep-17 06:00N 04°54' E 110°42'9012.8 030 / 121008.0 5.4 0.530.024.6
2014-Sep-16 23:00N 04°00' E 109°30'23814.0 050 / 61008.0 2.2 27.025.029.0
2014-Sep-16 06:00N 01°24' E 106°30'14413.6 130 / 121007.5 5.4 1.030.523.7
2014-Sep-15 19:23N 01°15' E 104°06'1518.1
2014-Sep-15 18:33N 01°11' E 103°51'1615.8
2014-Sep-15 17:33N 01°03' E 103°38'1313.1
2014-Sep-15 16:34N 01°15' E 103°32'7 6.8
2014-Sep-15 15:30N 01°22' E 103°33'0 0.0
2014-Sep-15 14:33N 01°22' E 103°33'0 0.0
2014-Sep-15 13:30N 01°22' E 103°33'0 0.0
2014-Sep-15 12:24N 01°22' E 103°33'0 0.0
2014-Sep-15 11:33N 01°22' E 103°33'0 0.0
2014-Sep-15 10:30N 01°22' E 103°33'0 0.0
2014-Sep-15 09:33N 01°22' E 103°33'0 0.0
2014-Sep-15 08:33N 01°22' E 103°33'0 0.0
2014-Sep-15 07:24N 01°22' E 103°33'0 0.0
2014-Sep-15 06:09N 01°22' E 103°33'0 0.0
2014-Sep-15 05:24N 01°22' E 103°33'0 0.0
2014-Sep-15 04:33N 01°22' E 103°33'0 0.0
2014-Sep-15 03:33N 01°22' E 103°33'0 0.0
2014-Sep-15 02:27N 01°22' E 103°33'0 0.0
2014-Sep-15 01:27N 01°22' E 103°33'0 0.0
2014-Sep-15 00:24N 01°22' E 103°33'0 0.0
2014-Sep-14 22:33N 01°22' E 103°33'7 7.0
2014-Sep-14 21:33N 01°15' E 103°33'1 1.1
2014-Sep-14 20:22N 01°14' E 103°32'0 0.0
2014-Sep-14 19:31N 01°14' E 103°32'0 0.0
2014-Sep-14 18:31N 01°14' E 103°32'0 0.1
2014-Sep-14 16:31N 01°15' E 103°31'0 0.1
2014-Sep-14 15:22N 01°15' E 103°31'0 0.0
2014-Sep-14 14:31N 01°14' E 103°31'0 0.0
2014-Sep-14 13:31N 01°14' E 103°31'0 0.1
2014-Sep-14 12:31N 01°14' E 103°31'2 1.7
2014-Sep-14 11:33N 01°13' E 103°33'1212.4
2014-Sep-14 10:33N 01°09' E 103°44'10 9.6
2014-Sep-14 09:34N 01°15' E 103°52'2 1.8
2014-Sep-14 08:27N 01°16' E 103°50'0 0.0
2014-Sep-14 07:33N 01°16' E 103°50'0 0.0
2014-Sep-14 04:09N 01°16' E 103°50'0 0.0
2014-Sep-14 03:33N 01°16' E 103°50'0 0.0
2014-Sep-14 02:15N 01°16' E 103°50'0 0.0
2014-Sep-14 01:21N 01°16' E 103°50'0 0.0
2014-Sep-13 21:18N 01°16' E 103°50'0 0.0
2014-Sep-13 20:30N 01°16' E 103°50'0 0.0
2014-Sep-13 19:33N 01°16' E 103°50'0 0.0
2014-Sep-13 18:18N 01°16' E 103°50'0 0.0
2014-Sep-13 17:24N 01°16' E 103°50'0 0.0
2014-Sep-13 16:33N 01°16' E 103°50'0 0.0
2014-Sep-13 15:33N 01°16' E 103°50'0 0.0
2014-Sep-13 14:21N 01°16' E 103°50'0 0.0
2014-Sep-13 13:33N 01°16' E 103°50'0 0.0
2014-Sep-13 12:24N 01°16' E 103°50'1 0.9
2014-Sep-13 11:33N 01°16' E 103°51'5 5.4
2014-Sep-13 10:33N 01°14' E 103°56'1312.4
2014-Sep-13 09:33N 01°17' E 104°08'  
2014-Sep-10 18:00N 07°36' E 119°24'   180 / 61011.0 5.4 28.023.2
Track history (hours):
 
Tides and Currents Weather Stations Pressure Air Temp Water Temp Dewpoint Dewpoint Depression Visibility Wind Speed Wind Dir Waves Ship Positions

San Aurelio

Last reported at 2014-Sep-19 18:00 UTC. Time now 2014-Sep-24 02:23 UTC.
Position N 06°18' E 122°24'.

Length 186 m; draft 9.5 m.

Type: Cargo ship. MMSI: 636091534.

Wind from 120 at 8 knots

Barometer 1010.0 mb
Air temperature 28.0 ° C
Visibility: greater than 10.8 NM
Dewpoint 23.9 ° C

Date/timePositionNaut miles runAvg speedWind from/ knotsBaromVisibWave heightAir tempDewpointWater temp
2014-Sep-19 18:00N 06°18' E 122°24'110 9.1 120 / 81010.010.8 28.023.9
2014-Sep-19 06:00N 07°12' E 120°48'16013.4 200 / 141009.010.8 1.030.024.6
2014-Sep-18 18:00N 07°54' E 118°12'15512.9 250 / 81009.5 5.4 27.524.1
2014-Sep-18 06:00N 07°12' E 115°42'16814.0 030 / 81009.010.8 0.529.524.0
2014-Sep-17 18:00N 06°24' E 113°00'16413.7 030 / 191009.010.8 28.525.8
2014-Sep-17 06:00N 04°54' E 110°42'9012.8 030 / 121008.0 5.4 0.530.024.6
2014-Sep-16 23:00N 04°00' E 109°30'23814.0 050 / 61008.0 2.2 27.025.029.0
2014-Sep-16 06:00N 01°24' E 106°30'14413.6 130 / 121007.5 5.4 1.030.523.7
2014-Sep-15 19:23N 01°15' E 104°06'1518.1
2014-Sep-15 18:33N 01°11' E 103°51'1615.8
2014-Sep-15 17:33N 01°03' E 103°38'1313.1
2014-Sep-15 16:34N 01°15' E 103°32'7 6.8
2014-Sep-15 15:30N 01°22' E 103°33'0 0.0
2014-Sep-15 14:33N 01°22' E 103°33'0 0.0
2014-Sep-15 13:30N 01°22' E 103°33'0 0.0
2014-Sep-15 12:24N 01°22' E 103°33'0 0.0
2014-Sep-15 11:33N 01°22' E 103°33'0 0.0
2014-Sep-15 10:30N 01°22' E 103°33'0 0.0
2014-Sep-15 09:33N 01°22' E 103°33'0 0.0
2014-Sep-15 08:33N 01°22' E 103°33'0 0.0
2014-Sep-15 07:24N 01°22' E 103°33'0 0.0
2014-Sep-15 06:09N 01°22' E 103°33'0 0.0
2014-Sep-15 05:24N 01°22' E 103°33'0 0.0
2014-Sep-15 04:33N 01°22' E 103°33'0 0.0
2014-Sep-15 03:33N 01°22' E 103°33'0 0.0
2014-Sep-15 02:27N 01°22' E 103°33'0 0.0
2014-Sep-15 01:27N 01°22' E 103°33'0 0.0
2014-Sep-15 00:24N 01°22' E 103°33'0 0.0
2014-Sep-14 22:33N 01°22' E 103°33'7 7.0
2014-Sep-14 21:33N 01°15' E 103°33'1 1.1
2014-Sep-14 20:22N 01°14' E 103°32'0 0.0
2014-Sep-14 19:31N 01°14' E 103°32'0 0.0
2014-Sep-14 18:31N 01°14' E 103°32'0 0.1
2014-Sep-14 16:31N 01°15' E 103°31'0 0.1
2014-Sep-14 15:22N 01°15' E 103°31'0 0.0
2014-Sep-14 14:31N 01°14' E 103°31'0 0.0
2014-Sep-14 13:31N 01°14' E 103°31'0 0.1
2014-Sep-14 12:31N 01°14' E 103°31'2 1.7
2014-Sep-14 11:33N 01°13' E 103°33'1212.4
2014-Sep-14 10:33N 01°09' E 103°44'10 9.6
2014-Sep-14 09:34N 01°15' E 103°52'2 1.8
2014-Sep-14 08:27N 01°16' E 103°50'0 0.0
2014-Sep-14 07:33N 01°16' E 103°50'0 0.0
2014-Sep-14 04:09N 01°16' E 103°50'0 0.0
2014-Sep-14 03:33N 01°16' E 103°50'0 0.0
2014-Sep-14 02:15N 01°16' E 103°50'0 0.0
2014-Sep-14 01:21N 01°16' E 103°50'0 0.0
2014-Sep-13 21:18N 01°16' E 103°50'0 0.0
2014-Sep-13 20:30N 01°16' E 103°50'0 0.0
2014-Sep-13 19:33N 01°16' E 103°50'0 0.0
2014-Sep-13 18:18N 01°16' E 103°50'0 0.0
2014-Sep-13 17:24N 01°16' E 103°50'0 0.0
2014-Sep-13 16:33N 01°16' E 103°50'0 0.0
2014-Sep-13 15:33N 01°16' E 103°50'0 0.0
2014-Sep-13 14:21N 01°16' E 103°50'0 0.0
2014-Sep-13 13:33N 01°16' E 103°50'0 0.0
2014-Sep-13 12:24N 01°16' E 103°50'1 0.9
2014-Sep-13 11:33N 01°16' E 103°51'5 5.4
2014-Sep-13 10:33N 01°14' E 103°56'1312.4
2014-Sep-13 09:33N 01°17' E 104°08'  
2014-Sep-10 18:00N 07°36' E 119°24'   180 / 61011.0 5.4 28.023.2

Dump ship's entire track history